Time;durP1;ratioP1;P1;durP2;ratioP2;P2;SDS_P1;SDS_P2;PMS_P1;PMS_P2;Temp;Humidity;BMP_temperature;BMP_pressure;BME280_temperature;BME280_humidity;BME280_pressure;Samples;Min_cycle;Max_cycle;Signal;HPM_P1;HPM_P2
2023/10/01 00:03:25;;;;;;;10.77;3.37;;;;;;;13.12;100.00;101462.27;5047269;56;1143169;-71
2023/10/01 00:08:32;;;;;;;19.25;4.35;;;;;;;13.11;100.00;101461.91;5035424;57;1142842;-70
2023/10/01 00:13:38;;;;;;;14.15;3.30;;;;;;;13.08;100.00;101470.09;5098221;56;1142769;-70
2023/10/01 00:18:46;;;;;;;16.73;3.55;;;;;;;12.98;100.00;101474.76;5095494;56;1143041;-70
2023/10/01 00:23:51;;;;;;;13.58;4.67;;;;;;;12.90;100.00;101473.12;4961621;57;1143309;-70
2023/10/01 00:28:57;;;;;;;15.33;4.53;;;;;;;12.85;100.00;101465.10;5000577;57;1143349;-70
2023/10/01 00:34:03;;;;;;;20.57;9.45;;;;;;;12.85;100.00;101463.30;5098738;56;1142924;-70
2023/10/01 00:39:08;;;;;;;14.57;5.47;;;;;;;12.84;100.00;101452.30;5017491;57;1142925;-70
2023/10/01 00:44:15;;;;;;;16.13;3.90;;;;;;;12.85;100.00;101449.17;5093367;56;1142914;-70
2023/10/01 00:49:22;;;;;;;8.40;3.00;;;;;;;12.86;100.00;101445.56;5016197;57;1142873;-70
2023/10/01 00:54:29;;;;;;;7.70;3.33;;;;;;;12.87;100.00;101444.13;5056198;57;1140734;-70
2023/10/01 00:59:35;;;;;;;17.67;3.70;;;;;;;12.93;100.00;101438.86;5072235;56;1140613;-72
2023/10/01 01:04:44;;;;;;;13.53;3.67;;;;;;;12.99;100.00;101433.94;5015424;57;1142889;-71
2023/10/01 01:09:50;;;;;;;9.08;3.55;;;;;;;12.98;100.00;101436.25;4962735;57;1142832;-71
2023/10/01 01:14:58;;;;;;;14.47;3.33;;;;;;;12.92;100.00;101418.09;5021926;56;1140769;-70
2023/10/01 01:20:09;;;;;;;13.22;2.85;;;;;;;12.87;100.00;101420.71;5021988;56;1142811;-72
2023/10/01 01:25:20;;;;;;;9.13;2.70;;;;;;;12.85;100.00;101421.30;5046376;56;1142728;-72
2023/10/01 01:30:26;;;;;;;14.07;3.43;;;;;;;12.85;100.00;101427.94;5026970;56;1141145;-72
2023/10/01 01:35:31;;;;;;;16.97;4.77;;;;;;;12.82;100.00;101428.18;5026181;56;1142900;-72
2023/10/01 01:40:40;;;;;;;11.10;3.10;;;;;;;12.73;100.00;101423.52;5046139;57;1152076;-72
2023/10/01 01:45:46;;;;;;;14.80;3.10;;;;;;;12.73;100.00;101422.19;5014776;55;1143001;-72
2023/10/01 01:50:54;;;;;;;10.33;4.20;;;;;;;12.78;100.00;101408.12;5016437;56;1142933;-72
2023/10/01 01:56:04;;;;;;;10.03;2.90;;;;;;;12.83;100.00;101394.86;5029289;56;1143286;-72
2023/10/01 02:06:27;;;;;;;9.33;2.53;;;;;;;12.89;100.00;101410.83;4933286;58;1143097;-71
2023/10/01 02:11:29;;;;;;;7.90;2.97;;;;;;;12.88;100.00;101413.11;5014690;57;1140819;-72
2023/10/01 02:16:35;;;;;;;11.83;3.00;;;;;;;12.86;100.00;101406.59;4965001;57;1140728;-72
2023/10/01 02:21:43;;;;;;;10.60;2.70;;;;;;;12.83;100.00;101404.66;5025442;56;1143158;-73
2023/10/01 02:26:59;;;;;;;10.75;2.67;;;;;;;12.77;100.00;101405.94;5109453;56;1143030;-71
2023/10/01 02:32:04;;;;;;;13.35;3.52;;;;;;;12.71;100.00;101398.41;5026419;56;1143043;-72
2023/10/01 02:37:10;;;;;;;10.53;3.20;;;;;;;12.70;100.00;101396.71;5045397;56;1143142;-72
2023/10/01 02:42:27;;;;;;;18.60;3.80;;;;;;;12.67;100.00;101417.72;5024883;56;1142855;-72
2023/10/01 02:47:25;;;;;;;7.97;2.57;;;;;;;12.63;100.00;101409.59;4998786;57;1142883;-72
2023/10/01 02:52:36;;;;;;;11.90;3.70;;;;;;;12.67;100.00;101408.42;5082425;57;1140597;-72
2023/10/01 02:57:40;;;;;;;10.70;3.03;;;;;;;12.61;100.00;101426.11;4996538;56;1142748;-72
2023/10/01 03:02:51;;;;;;;14.73;4.37;;;;;;;12.59;100.00;101421.86;4915110;58;1143020;-72
2023/10/01 03:08:03;;;;;;;10.47;3.03;;;;;;;12.56;100.00;101403.02;4994873;57;1143199;-72
2023/10/01 03:13:17;;;;;;;13.77;3.30;;;;;;;12.57;100.00;101398.56;5006983;56;1143077;-72
2023/10/01 03:18:54;;;;;;;11.50;2.60;;;;;;;12.58;100.00;101396.28;5050002;56;1143229;-72
2023/10/01 03:23:26;;;;;;;12.10;3.03;;;;;;;12.56;100.00;101391.08;4955360;57;1142895;-72
2023/10/01 03:29:14;;;;;;;9.33;2.60;;;;;;;12.57;100.00;101391.45;5019659;57;1142818;-73
2023/10/01 03:33:45;;;;;;;5.90;2.37;;;;;;;12.57;100.00;101381.31;4988827;57;1140758;-72
2023/10/01 03:38:49;;;;;;;11.65;2.90;;;;;;;12.59;100.00;101382.05;5079520;56;1141176;-72
2023/10/01 03:44:08;;;;;;;9.88;3.40;;;;;;;12.62;100.00;101385.34;4996173;57;1142830;-72
2023/10/01 03:55:26;;;;;;;15.32;3.70;;;;;;;12.63;100.00;101408.27;4996356;57;1142830;-72
2023/10/01 03:59:35;;;;;;;7.23;2.33;;;;;;;12.63;100.00;101402.97;4938037;57;1142907;-72
2023/10/01 04:04:58;;;;;;;10.40;2.83;;;;;;;12.65;100.00;101398.88;4961275;57;1149173;-72
2023/10/01 04:10:13;;;;;;;7.13;3.53;;;;;;;12.63;100.00;101395.00;5059915;57;1142890;-72
2023/10/01 04:15:27;;;;;;;7.93;2.47;;;;;;;12.65;100.00;101396.22;5031327;57;1140793;-73
2023/10/01 04:20:19;;;;;;;7.43;2.50;;;;;;;12.66;100.00;101368.72;5126156;55;1141105;-72
2023/10/01 04:25:25;;;;;;;10.83;2.77;;;;;;;12.79;100.00;101369.52;5058572;56;1140742;-72
2023/10/01 04:30:34;;;;;;;5.43;2.43;;;;;;;12.76;100.00;101384.34;5076630;56;1143409;-72
2023/10/01 04:35:39;;;;;;;7.97;2.37;;;;;;;12.71;100.00;101376.33;5086655;56;1141024;-73
2023/10/01 04:40:48;;;;;;;8.90;2.50;;;;;;;12.69;100.00;101381.75;5028359;56;1140963;-72
2023/10/01 04:45:53;;;;;;;8.98;2.20;;;;;;;12.70;100.00;101379.46;4912901;57;1140884;-72
2023/10/01 04:50:59;;;;;;;8.20;2.17;;;;;;;12.69;100.00;101383.07;4984142;57;1141192;-72
2023/10/01 04:56:07;;;;;;;8.47;2.93;;;;;;;12.61;100.00;101382.31;5098858;55;1140775;-73
2023/10/01 05:01:12;;;;;;;11.60;2.77;;;;;;;12.61;100.00;101378.34;4997342;57;1140797;-72
2023/10/01 05:06:20;;;;;;;11.50;2.30;;;;;;;12.61;100.00;101380.14;4936134;57;1142802;-72
2023/10/01 05:11:32;;;;;;;10.97;2.50;;;;;;;12.62;100.00;101383.16;4946314;57;1142725;-72
2023/10/01 05:16:38;;;;;;;7.87;2.03;;;;;;;12.63;100.00;101387.04;5037520;57;1142666;-72
2023/10/01 05:21:48;;;;;;;6.00;2.05;;;;;;;12.64;100.00;101388.73;5029317;57;1141014;-72
2023/10/01 05:26:54;;;;;;;43.65;30.62;;;;;;;12.67;100.00;101397.81;5088357;56;1141015;-74
2023/10/01 05:32:02;;;;;;;37.37;19.97;;;;;;;12.74;100.00;101399.52;5088282;56;1144743;-72
2023/10/01 05:37:12;;;;;;;15.93;5.43;;;;;;;12.79;100.00;101415.97;5078804;56;1145122;-72
2023/10/01 05:42:19;;;;;;;7.33;2.77;;;;;;;12.82;100.00;101416.23;5074817;56;1142988;-72
2023/10/01 05:47:41;;;;;;;7.37;2.23;;;;;;;12.84;100.00;101410.30;5030150;57;1140876;-73
2023/10/01 05:52:32;;;;;;;8.53;3.02;;;;;;;12.84;100.00;101415.62;4994678;57;1140902;-73
2023/10/01 05:57:37;;;;;;;8.73;2.43;;;;;;;12.78;100.00;101414.28;4915829;58;1140626;-73
2023/10/01 06:02:47;;;;;;;6.37;2.43;;;;;;;12.73;100.00;101419.06;5028776;57;1140657;-73
2023/10/01 06:07:54;;;;;;;10.43;2.50;;;;;;;12.74;100.00;101410.14;5079024;56;1140687;-73
2023/10/01 06:13:01;;;;;;;7.30;3.70;;;;;;;12.79;100.00;101412.47;5079021;56;1142954;-73
2023/10/01 06:18:06;;;;;;;6.72;3.25;;;;;;;12.81;100.00;101406.58;5059042;57;1141090;-73
2023/10/01 06:23:13;;;;;;;17.00;4.83;;;;;;;12.87;100.00;101410.09;4935596;58;1140727;-73
2023/10/01 06:28:20;;;;;;;14.90;5.57;;;;;;;12.96;100.00;101406.78;4996313;57;1143098;-73
2023/10/01 06:33:25;;;;;;;12.60;4.13;;;;;;;13.01;100.00;101421.39;4916848;57;1143031;-73
2023/10/01 06:38:31;;;;;;;9.23;3.83;;;;;;;13.08;100.00;101432.43;4966391;56;1142627;-72
2023/10/01 06:43:44;;;;;;;13.00;3.80;;;;;;;13.06;100.00;101429.52;5056252;56;1141047;-73
2023/10/01 06:48:47;;;;;;;13.37;3.80;;;;;;;13.09;100.00;101429.30;5029644;56;1143056;-74
2023/10/01 06:54:18;;;;;;;9.50;2.58;;;;;;;13.16;100.00;101427.42;5015974;56;1143007;-73
2023/10/01 07:04:11;;;;;;;14.13;3.33;;;;;;;13.22;100.00;101437.60;5001178;57;1140862;-72
2023/10/01 07:09:32;;;;;;;11.53;3.23;;;;;;;13.28;100.00;101438.97;5035462;56;1143026;-73
2023/10/01 07:14:43;;;;;;;17.13;3.57;;;;;;;13.32;100.00;101427.98;5069202;56;1142539;-73
2023/10/01 07:20:18;;;;;;;17.40;4.65;;;;;;;13.42;100.00;101426.83;4995351;56;1143061;-73
2023/10/01 07:24:59;;;;;;;12.60;3.93;;;;;;;13.54;100.00;101421.06;5002479;57;1143201;-73
2023/10/01 07:30:06;;;;;;;4.30;2.03;;;;;;;13.63;100.00;101425.19;5030055;57;1143012;-73
2023/10/01 07:35:14;;;;;;;10.67;2.77;;;;;;;13.67;100.00;101429.31;5077281;56;1140822;-73
2023/10/01 07:40:23;;;;;;;5.80;2.87;;;;;;;13.75;100.00;101428.72;5109363;56;1142828;-73
2023/10/01 07:45:28;;;;;;;8.80;2.30;;;;;;;13.85;100.00;101426.22;5184089;55;1140593;-73
2023/10/01 07:50:35;;;;;;;8.23;2.77;;;;;;;13.94;100.00;101428.16;5098793;56;1141059;-75
2023/10/01 07:55:41;;;;;;;13.37;2.50;;;;;;;14.07;100.00;101432.89;5120304;56;1140986;-72
2023/10/01 08:00:47;;;;;;;7.03;2.00;;;;;;;14.20;100.00;101435.47;5079829;56;1142818;-74
2023/10/01 08:06:10;;;;;;;8.80;2.35;;;;;;;14.34;100.00;101430.75;4938285;57;1140869;-73
2023/10/01 08:11:01;;;;;;;7.45;1.92;;;;;;;14.47;100.00;101433.31;4998567;56;1141043;-73
2023/10/01 08:16:13;;;;;;;9.87;2.20;;;;;;;14.60;100.00;101430.52;4993668;57;1140772;-73
2023/10/01 08:21:16;;;;;;;11.27;2.87;;;;;;;14.73;100.00;101431.22;4960660;57;1140875;-73
2023/10/01 08:36:55;;;;;;;6.90;2.15;;;;;;;15.10;100.00;101441.94;5110578;56;1142787;-72
2023/10/01 08:42:09;;;;;;;6.37;1.77;;;;;;;15.18;100.00;101441.77;5098896;56;1140672;-73
2023/10/01 08:47:32;;;;;;;10.40;2.60;;;;;;;15.30;100.00;101438.09;5128172;55;1141026;-73
2023/10/01 08:52:52;;;;;;;6.20;1.53;;;;;;;15.41;100.00;101440.73;5018156;57;1142955;-74
2023/10/01 08:57:45;;;;;;;16.43;3.57;;;;;;;15.45;100.00;101434.99;5057188;56;1150395;-73
2023/10/01 09:03:10;;;;;;;11.67;2.00;;;;;;;15.56;100.00;101434.16;5065157;56;1152271;-72
2023/10/01 09:08:19;;;;;;;8.13;2.22;;;;;;;15.72;100.00;101433.70;5037352;57;1142604;-73
2023/10/01 09:13:26;;;;;;;13.27;2.60;;;;;;;15.82;100.00;101439.94;5069234;56;1140773;-72
2023/10/01 09:18:37;;;;;;;6.93;2.87;;;;;;;15.88;100.00;101445.25;4965097;57;1142973;-73
2023/10/01 09:23:56;;;;;;;4.70;2.10;;;;;;;15.89;100.00;101446.95;4996080;57;1140847;-72
2023/10/01 09:29:12;;;;;;;9.60;2.17;;;;;;;15.92;100.00;101442.66;4974120;55;1150515;-73
2023/10/01 09:34:31;;;;;;;11.83;2.37;;;;;;;15.98;100.00;101449.66;5040683;56;1140904;-71
2023/10/01 09:39:44;;;;;;;4.50;1.80;;;;;;;16.04;100.00;101449.12;4914942;57;1143090;-73
2023/10/01 09:44:54;;;;;;;5.57;2.17;;;;;;;16.10;100.00;101453.09;4927583;57;1140669;-74
2023/10/01 09:50:03;;;;;;;7.03;2.00;;;;;;;16.16;100.00;101443.23;5039086;57;1141152;-73
2023/10/01 09:55:23;;;;;;;7.72;2.22;;;;;;;16.21;100.00;101440.15;5047337;56;1140797;-71
2023/10/01 10:00:20;;;;;;;14.60;2.50;;;;;;;16.30;100.00;101430.88;5037459;56;1140805;-73
2023/10/01 10:05:26;;;;;;;7.53;2.77;;;;;;;16.53;100.00;101424.34;5071265;55;1142816;-71
2023/10/01 10:10:33;;;;;;;9.10;2.67;;;;;;;16.77;100.00;101420.53;5104881;55;1140656;-74
2023/10/01 10:15:58;;;;;;;10.60;3.50;;;;;;;17.01;100.00;101429.49;5012305;57;1141087;-72
2023/10/01 10:21:05;;;;;;;8.67;2.27;;;;;;;17.23;100.00;101431.92;4970653;57;1142772;-73
2023/10/01 10:26:14;;;;;;;8.63;2.83;;;;;;;17.48;100.00;101429.17;4964050;56;1140808;-72
2023/10/01 10:31:32;;;;;;;12.43;2.47;;;;;;;17.59;100.00;101427.67;4966858;57;1140935;-74
2023/10/01 10:36:50;;;;;;;8.27;2.47;;;;;;;17.69;100.00;101419.70;4955103;56;1142810;-71
2023/10/01 10:42:28;;;;;;;8.93;3.23;;;;;;;17.89;100.00;101410.13;4940703;57;1141015;-72
2023/10/01 10:48:05;;;;;;;7.73;2.53;;;;;;;18.05;99.22;101413.53;4937862;57;1140876;-71
2023/10/01 10:53:15;;;;;;;6.87;2.75;;;;;;;18.11;97.56;101411.62;4977960;56;1138907;-73
2023/10/01 10:58:15;;;;;;;13.77;3.20;;;;;;;18.23;97.54;101406.92;4885013;57;1138839;-71
2023/10/01 11:03:43;;;;;;;5.93;2.50;;;;;;;18.36;98.21;101404.75;4903154;58;1140613;-72
2023/10/01 11:08:56;;;;;;;7.77;2.50;;;;;;;18.38;95.49;101405.45;4863628;59;1138879;-71
2023/10/01 11:14:02;;;;;;;9.93;2.90;;;;;;;18.28;93.24;101392.61;4917471;58;1138912;-72
2023/10/01 11:19:13;;;;;;;9.13;2.73;;;;;;;18.28;93.24;101392.61;4961791;58;1138876;-72
2023/10/01 11:24:19;;;;;;;11.17;3.10;;;;;;;18.21;94.55;101392.34;4907842;57;1138739;-71
2023/10/01 11:29:29;;;;;;;10.40;2.80;;;;;;;18.34;95.93;101381.78;4910541;57;1140809;-71
2023/10/01 11:34:46;;;;;;;11.63;3.00;;;;;;;18.41;95.14;101386.91;4955787;57;1141004;-72
2023/10/01 11:39:52;;;;;;;10.10;3.03;;;;;;;18.39;92.64;101375.50;4944444;58;1140714;-75
2023/10/01 11:44:58;;;;;;;6.60;2.50;;;;;;;18.28;93.49;101373.86;4891333;58;1140983;-73
2023/10/01 11:50:12;;;;;;;9.87;2.57;;;;;;;18.08;94.03;101379.78;4953930;56;1139062;-74
2023/10/01 11:55:19;;;;;;;15.43;3.43;;;;;;;17.90;94.53;101383.72;4886961;58;1138934;-72
2023/10/01 12:05:48;;;;;;;9.10;3.27;;;;;;;17.79;96.30;101385.23;4933700;57;1138913;-72
2023/10/01 12:11:20;;;;;;;14.43;3.25;;;;;;;17.75;95.31;101375.80;5017860;57;1138848;-72
2023/10/01 12:16:03;;;;;;;6.20;2.83;;;;;;;17.78;96.72;101375.52;5071546;56;1140813;-72
2023/10/01 12:21:24;;;;;;;10.43;3.08;;;;;;;17.76;96.33;101369.95;5015063;57;1138882;-71
2023/10/01 12:31:23;;;;;;;10.30;3.17;;;;;;;17.81;96.48;101370.38;5020687;57;1138423;-74
2023/10/01 12:36:51;;;;;;;10.87;3.23;;;;;;;17.92;97.21;101369.70;5020478;57;1140888;-73
2023/10/01 12:47:07;;;;;;;6.40;2.75;;;;;;;18.06;95.45;101349.64;5103975;56;1138909;-73
2023/10/01 12:52:14;;;;;;;8.00;3.50;;;;;;;18.14;95.71;101359.13;5025248;56;1138788;-71
2023/10/01 12:57:22;;;;;;;5.58;2.25;;;;;;;18.19;95.01;101342.60;5027024;57;1138698;-74
2023/10/01 13:02:42;;;;;;;10.10;3.22;;;;;;;18.23;94.67;101347.52;4943775;56;1138668;-71
2023/10/01 13:07:37;;;;;;;20.17;3.53;;;;;;;18.24;94.67;101346.53;5096089;56;1140761;-73
2023/10/01 13:12:59;;;;;;;10.30;3.22;;;;;;;18.24;92.97;101346.53;5119007;56;1141024;-74
2023/10/01 13:18:16;;;;;;;12.00;3.00;;;;;;;18.31;93.33;101346.80;5099523;56;1140894;-74
2023/10/01 13:23:24;;;;;;;9.13;2.83;;;;;;;18.34;93.02;101350.98;5098211;56;1141202;-72
2023/10/01 13:28:43;;;;;;;9.60;2.97;;;;;;;18.37;90.52;101348.86;5119695;56;1138895;-72
2023/10/01 13:33:56;;;;;;;13.22;3.17;;;;;;;18.36;90.97;101353.86;5096468;56;1138608;-72
2023/10/01 13:39:12;;;;;;;9.67;3.30;;;;;;;18.40;90.06;101361.11;5017591;56;1140866;-72
2023/10/01 14:11:02;;;;;;;6.82;3.06;;;;;;;18.58;88.85;101345.93;5066122;56;1140999;-74
2023/10/01 14:16:25;;;;;;;5.97;2.90;;;;;;;18.67;86.50;101337.00;5071407;56;1146302;-74
2023/10/01 14:21:29;;;;;;;4.92;3.27;;;;;;;18.66;87.98;101334.47;5029005;56;1138995;-70
2023/10/01 14:26:34;;;;;;;13.60;3.52;;;;;;;18.63;88.29;101335.64;4969104;56;1138683;-72
2023/10/01 14:31:49;;;;;;;13.62;3.05;;;;;;;18.59;88.78;101331.08;5009232;56;1140827;-72
2023/10/01 14:37:00;;;;;;;11.03;3.17;;;;;;;18.64;89.45;101331.94;5025457;56;1140730;-71
2023/10/01 14:42:03;;;;;;;10.17;3.40;;;;;;;18.71;90.09;101337.55;5014978;57;1140837;-73
2023/10/01 14:47:17;;;;;;;7.07;3.47;;;;;;;18.70;89.77;101332.69;4985596;57;1140782;-71
2023/10/01 14:52:22;;;;;;;6.33;2.95;;;;;;;18.64;89.97;101325.24;5079800;56;1138680;-73
2023/10/01 14:57:23;;;;;;;14.35;3.47;;;;;;;18.51;90.38;101318.88;5098481;56;1138704;-73
2023/10/01 15:02:28;;;;;;;9.38;3.02;;;;;;;18.40;90.45;101317.77;5056324;56;1141028;-71
2023/10/01 15:07:34;;;;;;;12.55;3.42;;;;;;;18.28;91.01;101318.97;5019144;56;1138880;-70
2023/10/01 15:12:40;;;;;;;11.83;2.98;;;;;;;18.21;91.51;101308.49;4995894;57;1140662;-72
2023/10/01 15:17:46;;;;;;;12.37;3.77;;;;;;;18.11;91.93;101317.08;5015206;58;1140627;-72
2023/10/01 15:22:51;;;;;;;9.25;3.30;;;;;;;18.00;92.60;101315.45;4993414;57;1140494;-73
2023/10/01 15:27:59;;;;;;;30.03;6.20;;;;;;;17.92;93.42;101317.51;4961772;57;1138814;-72
2023/10/01 15:33:15;;;;;;;8.60;3.42;;;;;;;17.89;94.64;101310.26;4970023;57;1140870;-72
2023/10/01 15:38:39;;;;;;;14.55;3.25;;;;;;;17.91;95.10;101314.97;4963774;57;1138911;-72
2023/10/01 15:43:23;;;;;;;10.93;3.65;;;;;;;17.90;95.10;101305.26;5001635;56;1140962;-72
2023/10/01 15:48:35;;;;;;;13.13;3.22;;;;;;;17.88;95.25;101304.06;5014138;56;1141088;-71
2023/10/01 15:53:40;;;;;;;20.08;10.53;;;;;;;17.88;95.39;101303.22;5008815;57;1141306;-71
2023/10/01 15:58:49;;;;;;;13.25;4.65;;;;;;;17.88;95.48;101308.08;4992421;57;1143100;-71
2023/10/01 16:03:53;;;;;;;15.57;5.33;;;;;;;17.84;95.58;101317.41;4987783;56;1140885;-73
2023/10/01 16:08:58;;;;;;;17.62;4.00;;;;;;;17.84;95.90;101313.89;4983823;56;1141172;-72
2023/10/01 16:14:04;;;;;;;10.38;3.87;;;;;;;17.83;96.28;101317.06;4998520;55;1140927;-72
2023/10/01 16:19:09;;;;;;;14.83;3.20;;;;;;;17.79;96.89;101323.69;5014568;56;1141045;-72
2023/10/01 16:24:15;;;;;;;10.50;3.77;;;;;;;17.70;97.33;101327.25;5083895;56;1140990;-73
2023/10/01 16:29:24;;;;;;;21.67;5.43;;;;;;;17.64;97.76;101321.13;5044839;56;1140653;-72
2023/10/01 16:34:39;;;;;;;30.83;6.83;;;;;;;17.63;98.37;101319.41;5034299;56;1140877;-72
2023/10/01 16:39:36;;;;;;;20.87;7.40;;;;;;;17.58;98.97;101319.83;5098002;56;1140937;-71
2023/10/01 16:44:42;;;;;;;25.46;7.40;;;;;;;17.61;99.96;101316.03;5013275;56;1141031;-72
2023/10/01 16:49:48;;;;;;;27.77;6.83;;;;;;;17.65;100.00;101324.16;5093138;56;1141206;-71
2023/10/01 16:54:54;;;;;;;26.97;7.47;;;;;;;17.73;100.00;101320.73;4981741;57;1143316;-72
2023/10/01 17:00:00;;;;;;;42.13;18.25;;;;;;;17.77;100.00;101322.14;5076038;56;1142722;-73
2023/10/01 17:05:07;;;;;;;45.17;23.02;;;;;;;17.87;100.00;101335.02;5034981;57;1144824;-72
2023/10/01 17:10:17;;;;;;;48.44;23.60;;;;;;;17.93;100.00;101331.73;5051903;56;1144794;-74
2023/10/01 17:15:43;;;;;;;122.50;57.30;;;;;;;17.94;100.00;101324.05;5091267;55;1144902;-71
2023/10/01 17:20:51;;;;;;;101.12;49.42;;;;;;;17.87;100.00;101321.11;5125033;56;1147155;-72
2023/10/01 17:26:00;;;;;;;35.92;13.98;;;;;;;17.84;100.00;101325.94;5001697;57;1147014;-72
2023/10/01 17:31:07;;;;;;;58.87;27.75;;;;;;;17.88;100.00;101328.15;5059795;56;1144880;-72
2023/10/01 17:36:12;;;;;;;64.07;25.57;;;;;;;17.92;100.00;101332.72;5098998;56;1145297;-73
2023/10/01 17:41:20;;;;;;;30.17;16.13;;;;;;;17.91;100.00;101345.26;4995837;56;1144884;-71
2023/10/01 17:46:35;;;;;;;46.70;22.37;;;;;;;17.90;100.00;101338.71;5078645;56;1145173;-73
2023/10/01 17:51:44;;;;;;;12.90;6.87;;;;;;;17.85;100.00;101339.17;5120496;56;1144927;-70
2023/10/01 17:56:49;;;;;;;34.73;15.43;;;;;;;17.77;100.00;101328.83;5104468;56;1142938;-71
2023/10/01 18:02:06;;;;;;;30.00;12.73;;;;;;;17.66;100.00;101329.86;5147005;55;1145139;-71
2023/10/01 18:07:29;;;;;;;21.37;8.60;;;;;;;17.58;100.00;101337.71;5078037;57;1145175;-74
2023/10/01 18:12:27;;;;;;;21.33;9.40;;;;;;;17.52;100.00;101327.11;5021761;56;1143059;-73
2023/10/01 18:17:33;;;;;;;13.08;6.12;;;;;;;17.50;100.00;101325.56;4998667;57;1143087;-72
2023/10/01 18:22:39;;;;;;;16.50;7.97;;;;;;;17.46;100.00;101327.68;4912792;58;1142847;-71
2023/10/01 18:27:54;;;;;;;32.23;18.87;;;;;;;17.48;100.00;101340.91;5018772;57;1143080;-74
2023/10/01 18:32:54;;;;;;;29.50;13.50;;;;;;;17.51;100.00;101351.33;4988243;57;1144889;-71
2023/10/01 18:38:11;;;;;;;27.37;10.32;;;;;;;17.50;100.00;101338.45;5097049;55;1145141;-73
2023/10/01 18:43:07;;;;;;;19.83;8.10;;;;;;;17.44;100.00;101340.34;5005951;56;1145050;-72
2023/10/01 18:48:13;;;;;;;23.40;8.38;;;;;;;17.38;100.00;101346.78;4998549;56;1143094;-74
2023/10/01 18:53:18;;;;;;;20.27;10.60;;;;;;;17.36;100.00;101348.26;4974042;57;1142924;-72
2023/10/01 18:58:24;;;;;;;21.93;10.43;;;;;;;17.36;100.00;101342.06;5063895;56;1144842;-72
2023/10/01 19:03:29;;;;;;;21.37;9.33;;;;;;;17.37;100.00;101337.91;5014866;57;1144906;-74
2023/10/01 19:08:35;;;;;;;22.33;9.10;;;;;;;17.35;100.00;101335.02;5066710;57;1143041;-74
2023/10/01 19:13:41;;;;;;;23.07;12.17;;;;;;;17.32;100.00;101343.33;4977926;57;1143083;-74
2023/10/01 19:18:52;;;;;;;18.50;9.77;;;;;;;17.15;100.00;101341.72;5029090;57;1144958;-73
2023/10/01 19:23:57;;;;;;;18.30;7.53;;;;;;;17.06;100.00;101339.91;5028194;56;1142831;-73
2023/10/01 19:29:03;;;;;;;12.10;5.33;;;;;;;17.01;100.00;101339.47;4995416;56;1142913;-72
2023/10/01 19:34:10;;;;;;;10.63;5.87;;;;;;;16.94;100.00;101333.02;4939497;57;1143194;-72
2023/10/01 19:39:24;;;;;;;13.23;5.90;;;;;;;16.83;100.00;101339.31;5044207;56;1143152;-72
2023/10/01 19:44:34;;;;;;;16.13;6.07;;;;;;;16.83;100.00;101339.31;5021061;56;1143190;-72
2023/10/01 19:49:40;;;;;;;95.03;61.23;;;;;;;16.79;100.00;101345.09;4925119;57;1142795;-72
2023/10/01 19:54:47;;;;;;;48.53;30.33;;;;;;;16.79;100.00;101327.24;4949630;57;1144752;-73
2023/10/01 19:59:54;;;;;;;24.63;10.77;;;;;;;16.83;100.00;101330.45;4967821;56;1145067;-72
2023/10/01 20:04:59;;;;;;;12.64;5.20;;;;;;;16.78;100.00;101313.53;5004774;56;1145080;-72
2023/10/01 20:10:11;;;;;;;14.63;4.57;;;;;;;16.74;100.00;101328.63;4874692;58;1142938;-71
2023/10/01 20:15:23;;;;;;;13.57;5.37;;;;;;;16.66;100.00;101322.63;4881925;58;1142990;-71
2023/10/01 20:20:34;;;;;;;10.13;5.23;;;;;;;16.64;100.00;101322.45;4954219;57;1142573;-72
2023/10/01 20:25:41;;;;;;;17.67;6.60;;;;;;;16.61;100.00;101338.70;4947970;57;1143029;-72
2023/10/01 20:30:55;;;;;;;21.07;6.47;;;;;;;16.53;100.00;101334.03;5021729;57;1143085;-72
2023/10/01 20:35:57;;;;;;;17.40;6.37;;;;;;;16.52;100.00;101335.86;4958211;57;1142873;-72
2023/10/01 20:41:18;;;;;;;12.33;5.97;;;;;;;16.50;100.00;101331.14;5002331;57;1188837;-72
2023/10/01 20:46:25;;;;;;;14.30;7.17;;;;;;;16.47;100.00;101326.59;4942960;58;1169921;-72
2023/10/01 20:51:33;;;;;;;38.73;20.67;;;;;;;16.48;100.00;101331.80;5039380;57;1143111;-72
2023/10/01 20:56:43;;;;;;;128.50;61.90;;;;;;;16.50;100.00;101335.16;5020265;57;1144975;-72
2023/10/01 21:02:07;;;;;;;174.07;90.63;;;;;;;16.45;100.00;101332.07;5020215;57;1146952;-72
2023/10/01 21:07:15;;;;;;;158.67;87.07;;;;;;;16.48;100.00;101331.80;5077678;56;1146989;-72
2023/10/01 21:12:20;;;;;;;35.43;19.25;;;;;;;16.54;100.00;101341.07;5098238;56;1147285;-72
2023/10/01 21:17:47;;;;;;;17.97;8.43;;;;;;;16.52;100.00;101337.69;5067634;56;1144825;-72
2023/10/01 21:22:46;;;;;;;17.40;6.30;;;;;;;16.47;100.00;101331.94;5082972;56;1142988;-73
2023/10/01 21:27:54;;;;;;;12.20;6.73;;;;;;;16.43;100.00;101322.02;5144580;56;1142910;-72
2023/10/01 21:33:00;;;;;;;14.90;5.73;;;;;;;16.39;100.00;101313.91;5124493;56;1142768;-72
2023/10/01 21:38:10;;;;;;;11.36;6.46;;;;;;;16.44;100.00;101317.52;5084037;56;1143427;-73
2023/10/01 21:43:24;;;;;;;21.50;6.45;;;;;;;16.50;100.00;101316.46;4975009;58;1143130;-72
2023/10/01 21:48:29;;;;;;;17.00;6.30;;;;;;;16.53;100.00;101324.69;4997289;56;1248130;-72
2023/10/01 21:53:38;;;;;;;13.70;5.27;;;;;;;16.48;100.00;101329.63;5097281;56;1246228;-72
2023/10/01 21:58:55;;;;;;;14.37;5.67;;;;;;;16.41;100.00;101324.46;5040886;56;1142908;-73
2023/10/01 22:04:05;;;;;;;8.93;5.17;;;;;;;16.41;100.00;101312.45;4933124;58;1209021;-72
2023/10/01 22:09:21;;;;;;;14.83;6.00;;;;;;;16.42;100.00;101316.80;4929473;57;1248681;-72
2023/10/01 22:14:37;;;;;;;12.33;5.67;;;;;;;16.45;100.00;101312.05;5034159;56;1250227;-72
2023/10/01 22:19:43;;;;;;;10.30;4.77;;;;;;;16.46;100.00;101315.07;5061117;56;1260751;-73
2023/10/01 22:24:49;;;;;;;7.20;4.93;;;;;;;16.43;100.00;101313.16;5011847;57;1260304;-73
2023/10/01 22:29:57;;;;;;;8.80;4.37;;;;;;;16.43;100.00;101315.34;5043909;56;1248052;-72
2023/10/01 22:35:07;;;;;;;10.80;5.43;;;;;;;16.38;100.00;101312.23;5057097;57;1259233;-73
2023/10/01 22:40:13;;;;;;;11.15;4.90;;;;;;;16.36;100.00;101308.84;4985368;57;1260484;-72
2023/10/01 22:45:28;;;;;;;22.47;9.30;;;;;;;16.38;100.00;101312.23;5077372;56;1259371;-72
2023/10/01 22:50:33;;;;;;;16.55;6.67;;;;;;;16.41;100.00;101321.30;5091164;56;1142966;-72
2023/10/01 22:55:48;;;;;;;10.20;4.87;;;;;;;16.39;100.00;101333.94;5093985;56;1142921;-72
2023/10/01 23:00:53;;;;;;;11.20;3.97;;;;;;;16.31;100.00;101342.29;5065934;55;1143093;-72
2023/10/01 23:06:02;;;;;;;12.67;5.37;;;;;;;16.19;100.00;101346.89;5098172;56;1143152;-73
2023/10/01 23:11:04;;;;;;;10.87;4.63;;;;;;;16.10;100.00;101350.35;5097106;56;1142916;-73
2023/10/01 23:16:19;;;;;;;9.30;4.37;;;;;;;16.05;100.00;101350.74;5098510;56;1143092;-72
2023/10/01 23:21:43;;;;;;;12.07;4.40;;;;;;;15.98;100.00;101343.42;5119551;56;1140716;-72
2023/10/01 23:26:32;;;;;;;13.23;5.50;;;;;;;15.91;100.00;101344.44;5084068;56;1142981;-72
2023/10/01 23:32:09;;;;;;;13.10;4.80;;;;;;;15.95;100.00;101340.53;5079115;56;1142918;-72
2023/10/01 23:37:07;;;;;;;12.83;5.77;;;;;;;16.01;100.00;101340.01;5083709;56;1143151;-74
2023/10/01 23:42:07;;;;;;;10.05;5.00;;;;;;;16.02;100.00;101333.70;5014658;57;1142979;-72
2023/10/01 23:47:13;;;;;;;11.05;4.47;;;;;;;16.08;100.00;101332.30;5000417;56;1165217;-72
2023/10/01 23:52:18;;;;;;;10.80;5.37;;;;;;;16.09;100.00;101332.16;5076070;56;1260039;-72
2023/10/01 23:57:24;;;;;;;8.87;4.30;;;;;;;16.14;100.00;101335.28;5098332;56;1142773;-73
